Castle Gate, Utah
Current Conditions -  °F | °C
As of 2:53 AM on Thursday 23 Oct 2014 (Local Time) from KPUC Reporting Station
Clear Clear  
Wind Chill: 44°   Ceiling: Unl
Heat Index: 44°   Visibility: 10mi
Dew Point: 30°   Wind: 3mph
Humidity: 58%   Direction: 10°N
Pressure: 30.23"   Gusts: NA
Location:  39.7304°N, 110.917°W
Report Text: KPUC 230853Z AUTO 01003KT 10SM CLR 07/M01 A3023 RMK AO2 SLP210 T00671011 53006 TSNO
Loading
Personal Weather Stations






























Interactive Weather Map
Tropical Storm Tracking
New forecast layout! Learn more

10-Day Weather Forecast

Advertisements
Track Severe Weather on mobile